sensor_id;sensor_type;location;lat;lon;timestamp;P1;durP1;ratioP1;P2;durP2;ratioP2
66485;SDS011;53303;47.476;8.084;2022-10-16T00:01:24;3.33;;;1.05;;
66485;SDS011;53303;47.476;8.084;2022-10-16T00:03:54;2.00;;;0.80;;
66485;SDS011;53303;47.476;8.084;2022-10-16T00:06:20;3.28;;;1.00;;
66485;SDS011;53303;47.476;8.084;2022-10-16T00:08:47;2.28;;;1.10;;
66485;SDS011;53303;47.476;8.084;2022-10-16T00:11:23;2.35;;;0.90;;
66485;SDS011;53303;47.476;8.084;2022-10-16T00:13:54;2.90;;;1.10;;
66485;SDS011;53303;47.476;8.084;2022-10-16T00:16:21;3.08;;;0.93;;
66485;SDS011;53303;47.476;8.084;2022-10-16T00:18:47;3.22;;;1.10;;
66485;SDS011;53303;47.476;8.084;2022-10-16T00:21:17;2.95;;;0.93;;
66485;SDS011;53303;47.476;8.084;2022-10-16T00:23:45;2.53;;;1.05;;
66485;SDS011;53303;47.476;8.084;2022-10-16T00:26:11;2.42;;;1.00;;
66485;SDS011;53303;47.476;8.084;2022-10-16T00:28:39;3.60;;;1.20;;
66485;SDS011;53303;47.476;8.084;2022-10-16T00:31:05;2.10;;;1.08;;
66485;SDS011;53303;47.476;8.084;2022-10-16T00:33:35;2.92;;;0.90;;
66485;SDS011;53303;47.476;8.084;2022-10-16T00:36:01;3.92;;;1.17;;
66485;SDS011;53303;47.476;8.084;2022-10-16T00:38:28;2.13;;;0.90;;
66485;SDS011;53303;47.476;8.084;2022-10-16T00:40:54;3.15;;;0.90;;
66485;SDS011;53303;47.476;8.084;2022-10-16T00:43:36;2.47;;;1.00;;
66485;SDS011;53303;47.476;8.084;2022-10-16T00:46:24;2.22;;;0.90;;
66485;SDS011;53303;47.476;8.084;2022-10-16T00:51:30;3.20;;;0.90;;
66485;SDS011;53303;47.476;8.084;2022-10-16T00:53:59;1.92;;;0.93;;
66485;SDS011;53303;47.476;8.084;2022-10-16T00:56:27;1.70;;;0.80;;
66485;SDS011;53303;47.476;8.084;2022-10-16T00:58:52;1.83;;;0.95;;
66485;SDS011;53303;47.476;8.084;2022-10-16T01:01:18;2.55;;;0.90;;
66485;SDS011;53303;47.476;8.084;2022-10-16T01:03:43;2.88;;;1.08;;
66485;SDS011;53303;47.476;8.084;2022-10-16T01:06:22;1.20;;;0.80;;
66485;SDS011;53303;47.476;8.084;2022-10-16T01:11:45;2.72;;;1.00;;
66485;SDS011;53303;47.476;8.084;2022-10-16T01:17:38;2.75;;;0.90;;
66485;SDS011;53303;47.476;8.084;2022-10-16T01:20:32;2.28;;;0.90;;
66485;SDS011;53303;47.476;8.084;2022-10-16T01:23:10;3.88;;;1.20;;
66485;SDS011;53303;47.476;8.084;2022-10-16T01:25:53;3.90;;;1.10;;
66485;SDS011;53303;47.476;8.084;2022-10-16T01:28:40;2.65;;;1.10;;
66485;SDS011;53303;47.476;8.084;2022-10-16T01:31:20;2.38;;;1.00;;
66485;SDS011;53303;47.476;8.084;2022-10-16T01:36:31;1.80;;;1.02;;
66485;SDS011;53303;47.476;8.084;2022-10-16T01:39:05;3.08;;;1.10;;
66485;SDS011;53303;47.476;8.084;2022-10-16T01:41:38;8.02;;;1.17;;
66485;SDS011;53303;47.476;8.084;2022-10-16T01:44:25;4.35;;;1.00;;
66485;SDS011;53303;47.476;8.084;2022-10-16T01:46:54;3.70;;;1.42;;
66485;SDS011;53303;47.476;8.084;2022-10-16T01:49:21;2.00;;;1.17;;
66485;SDS011;53303;47.476;8.084;2022-10-16T01:51:50;2.67;;;0.93;;
66485;SDS011;53303;47.476;8.084;2022-10-16T01:54:19;2.60;;;0.88;;
66485;SDS011;53303;47.476;8.084;2022-10-16T01:56:45;2.28;;;1.30;;
66485;SDS011;53303;47.476;8.084;2022-10-16T01:59:14;2.97;;;1.20;;
66485;SDS011;53303;47.476;8.084;2022-10-16T02:01:45;3.50;;;1.08;;
66485;SDS011;53303;47.476;8.084;2022-10-16T02:04:37;3.92;;;1.02;;
66485;SDS011;53303;47.476;8.084;2022-10-16T02:07:23;4.20;;;1.10;;
66485;SDS011;53303;47.476;8.084;2022-10-16T02:09:51;3.53;;;1.33;;
66485;SDS011;53303;47.476;8.084;2022-10-16T02:12:23;3.50;;;1.13;;
66485;SDS011;53303;47.476;8.084;2022-10-16T02:14:55;2.90;;;1.10;;
66485;SDS011;53303;47.476;8.084;2022-10-16T02:17:21;3.22;;;1.55;;
66485;SDS011;53303;47.476;8.084;2022-10-16T02:19:48;3.92;;;1.48;;
66485;SDS011;53303;47.476;8.084;2022-10-16T02:22:26;3.08;;;1.13;;
66485;SDS011;53303;47.476;8.084;2022-10-16T02:27:40;2.80;;;1.05;;
66485;SDS011;53303;47.476;8.084;2022-10-16T02:30:30;2.63;;;1.20;;
66485;SDS011;53303;47.476;8.084;2022-10-16T02:33:01;2.13;;;1.10;;
66485;SDS011;53303;47.476;8.084;2022-10-16T02:35:30;2.47;;;1.00;;
66485;SDS011;53303;47.476;8.084;2022-10-16T02:37:58;3.15;;;1.23;;
66485;SDS011;53303;47.476;8.084;2022-10-16T02:40:24;4.30;;;1.33;;
66485;SDS011;53303;47.476;8.084;2022-10-16T02:42:52;3.25;;;1.20;;
66485;SDS011;53303;47.476;8.084;2022-10-16T02:45:19;3.53;;;1.40;;
66485;SDS011;53303;47.476;8.084;2022-10-16T02:47:45;2.47;;;1.10;;
66485;SDS011;53303;47.476;8.084;2022-10-16T02:50:10;4.50;;;1.73;;
66485;SDS011;53303;47.476;8.084;2022-10-16T02:52:41;3.70;;;1.42;;
66485;SDS011;53303;47.476;8.084;2022-10-16T02:55:06;3.92;;;1.13;;
66485;SDS011;53303;47.476;8.084;2022-10-16T02:57:32;2.75;;;1.30;;
66485;SDS011;53303;47.476;8.084;2022-10-16T02:59:57;3.22;;;1.20;;
66485;SDS011;53303;47.476;8.084;2022-10-16T03:02:23;3.35;;;1.30;;
66485;SDS011;53303;47.476;8.084;2022-10-16T03:04:49;2.90;;;1.25;;
66485;SDS011;53303;47.476;8.084;2022-10-16T03:07:15;2.95;;;1.27;;
66485;SDS011;53303;47.476;8.084;2022-10-16T03:09:40;3.05;;;1.20;;
66485;SDS011;53303;47.476;8.084;2022-10-16T03:12:06;4.32;;;1.52;;
66485;SDS011;53303;47.476;8.084;2022-10-16T03:14:31;3.03;;;1.48;;
66485;SDS011;53303;47.476;8.084;2022-10-16T03:16:57;3.50;;;1.35;;
66485;SDS011;53303;47.476;8.084;2022-10-16T03:19:24;3.20;;;1.20;;
66485;SDS011;53303;47.476;8.084;2022-10-16T03:21:50;4.15;;;1.35;;
66485;SDS011;53303;47.476;8.084;2022-10-16T03:24:15;3.72;;;1.55;;
66485;SDS011;53303;47.476;8.084;2022-10-16T03:26:41;3.35;;;1.30;;
66485;SDS011;53303;47.476;8.084;2022-10-16T03:29:06;3.85;;;1.40;;
66485;SDS011;53303;47.476;8.084;2022-10-16T03:31:32;4.00;;;1.20;;
66485;SDS011;53303;47.476;8.084;2022-10-16T03:33:57;3.45;;;1.15;;
66485;SDS011;53303;47.476;8.084;2022-10-16T03:36:23;2.90;;;1.00;;
66485;SDS011;53303;47.476;8.084;2022-10-16T03:38:51;3.55;;;1.40;;
66485;SDS011;53303;47.476;8.084;2022-10-16T03:41:16;4.68;;;1.40;;
66485;SDS011;53303;47.476;8.084;2022-10-16T03:43:41;3.38;;;1.20;;
66485;SDS011;53303;47.476;8.084;2022-10-16T03:46:07;3.17;;;1.15;;
66485;SDS011;53303;47.476;8.084;2022-10-16T03:48:32;3.25;;;1.17;;
66485;SDS011;53303;47.476;8.084;2022-10-16T03:50:58;3.38;;;1.20;;
66485;SDS011;53303;47.476;8.084;2022-10-16T03:53:23;3.92;;;1.10;;
66485;SDS011;53303;47.476;8.084;2022-10-16T03:55:49;2.80;;;1.20;;
66485;SDS011;53303;47.476;8.084;2022-10-16T03:58:17;2.38;;;1.13;;
66485;SDS011;53303;47.476;8.084;2022-10-16T04:00:43;2.97;;;1.27;;
66485;SDS011;53303;47.476;8.084;2022-10-16T04:03:09;3.65;;;1.45;;
66485;SDS011;53303;47.476;8.084;2022-10-16T04:05:35;2.92;;;1.30;;
66485;SDS011;53303;47.476;8.084;2022-10-16T04:08:01;3.80;;;1.30;;
66485;SDS011;53303;47.476;8.084;2022-10-16T04:10:29;4.32;;;1.33;;
66485;SDS011;53303;47.476;8.084;2022-10-16T04:12:55;3.25;;;1.13;;
66485;SDS011;53303;47.476;8.084;2022-10-16T04:15:21;3.08;;;1.20;;
66485;SDS011;53303;47.476;8.084;2022-10-16T04:17:49;2.92;;;1.10;;
66485;SDS011;53303;47.476;8.084;2022-10-16T04:20:14;2.67;;;1.02;;
66485;SDS011;53303;47.476;8.084;2022-10-16T04:22:39;2.55;;;1.33;;
66485;SDS011;53303;47.476;8.084;2022-10-16T04:25:08;3.00;;;1.30;;
66485;SDS011;53303;47.476;8.084;2022-10-16T04:27:36;3.60;;;1.20;;
66485;SDS011;53303;47.476;8.084;2022-10-16T04:30:04;3.10;;;1.20;;
66485;SDS011;53303;47.476;8.084;2022-10-16T04:32:29;3.35;;;1.20;;
66485;SDS011;53303;47.476;8.084;2022-10-16T04:34:55;2.65;;;1.10;;
66485;SDS011;53303;47.476;8.084;2022-10-16T04:37:24;4.10;;;1.40;;
66485;SDS011;53303;47.476;8.084;2022-10-16T04:39:50;2.17;;;1.13;;
66485;SDS011;53303;47.476;8.084;2022-10-16T04:42:16;4.30;;;1.17;;
66485;SDS011;53303;47.476;8.084;2022-10-16T04:44:41;3.08;;;1.25;;
66485;SDS011;53303;47.476;8.084;2022-10-16T04:47:09;3.58;;;1.10;;
66485;SDS011;53303;47.476;8.084;2022-10-16T04:49:37;3.80;;;1.23;;
66485;SDS011;53303;47.476;8.084;2022-10-16T04:52:02;5.68;;;1.70;;
66485;SDS011;53303;47.476;8.084;2022-10-16T04:54:28;3.13;;;1.42;;
66485;SDS011;53303;47.476;8.084;2022-10-16T04:56:56;3.28;;;1.15;;
66485;SDS011;53303;47.476;8.084;2022-10-16T04:59:21;5.47;;;1.30;;
66485;SDS011;53303;47.476;8.084;2022-10-16T05:01:49;3.85;;;1.05;;
66485;SDS011;53303;47.476;8.084;2022-10-16T05:04:17;2.35;;;1.00;;
66485;SDS011;53303;47.476;8.084;2022-10-16T05:06:45;3.95;;;1.40;;
66485;SDS011;53303;47.476;8.084;2022-10-16T05:09:12;3.20;;;1.17;;
66485;SDS011;53303;47.476;8.084;2022-10-16T05:11:37;3.53;;;1.10;;
66485;SDS011;53303;47.476;8.084;2022-10-16T05:14:07;3.72;;;1.38;;
66485;SDS011;53303;47.476;8.084;2022-10-16T05:16:33;4.38;;;1.30;;
66485;SDS011;53303;47.476;8.084;2022-10-16T05:18:58;4.43;;;1.20;;
66485;SDS011;53303;47.476;8.084;2022-10-16T05:21:26;2.88;;;1.25;;
66485;SDS011;53303;47.476;8.084;2022-10-16T05:23:52;4.13;;;1.45;;
66485;SDS011;53303;47.476;8.084;2022-10-16T05:26:19;4.10;;;1.50;;
66485;SDS011;53303;47.476;8.084;2022-10-16T05:28:44;3.78;;;1.40;;
66485;SDS011;53303;47.476;8.084;2022-10-16T05:31:10;4.85;;;1.40;;
66485;SDS011;53303;47.476;8.084;2022-10-16T05:33:35;3.75;;;1.10;;
66485;SDS011;53303;47.476;8.084;2022-10-16T05:36:01;4.05;;;1.30;;
66485;SDS011;53303;47.476;8.084;2022-10-16T05:38:28;2.78;;;1.10;;
66485;SDS011;53303;47.476;8.084;2022-10-16T05:40:53;4.55;;;1.65;;
66485;SDS011;53303;47.476;8.084;2022-10-16T05:43:19;2.30;;;1.08;;
66485;SDS011;53303;47.476;8.084;2022-10-16T05:45:57;4.35;;;1.17;;
66485;SDS011;53303;47.476;8.084;2022-10-16T05:48:24;4.45;;;1.60;;
66485;SDS011;53303;47.476;8.084;2022-10-16T05:51:04;3.72;;;1.27;;
66485;SDS011;53303;47.476;8.084;2022-10-16T05:53:34;2.95;;;1.52;;
66485;SDS011;53303;47.476;8.084;2022-10-16T05:56:01;3.92;;;1.13;;
66485;SDS011;53303;47.476;8.084;2022-10-16T05:58:28;2.95;;;1.33;;
66485;SDS011;53303;47.476;8.084;2022-10-16T06:00:56;3.83;;;1.20;;
66485;SDS011;53303;47.476;8.084;2022-10-16T06:03:23;5.82;;;1.63;;
66485;SDS011;53303;47.476;8.084;2022-10-16T06:05:49;4.03;;;1.40;;
66485;SDS011;53303;47.476;8.084;2022-10-16T06:08:15;5.18;;;1.50;;
66485;SDS011;53303;47.476;8.084;2022-10-16T06:10:40;4.63;;;1.55;;
66485;SDS011;53303;47.476;8.084;2022-10-16T06:13:06;6.00;;;2.03;;
66485;SDS011;53303;47.476;8.084;2022-10-16T06:15:32;3.42;;;1.38;;
66485;SDS011;53303;47.476;8.084;2022-10-16T06:17:59;4.70;;;1.83;;
66485;SDS011;53303;47.476;8.084;2022-10-16T06:20:24;5.18;;;1.90;;
66485;SDS011;53303;47.476;8.084;2022-10-16T06:22:54;4.88;;;1.73;;
66485;SDS011;53303;47.476;8.084;2022-10-16T06:25:19;4.53;;;1.80;;
66485;SDS011;53303;47.476;8.084;2022-10-16T06:27:47;5.80;;;1.50;;
66485;SDS011;53303;47.476;8.084;2022-10-16T06:30:12;5.85;;;1.40;;
66485;SDS011;53303;47.476;8.084;2022-10-16T06:32:38;3.92;;;1.30;;
66485;SDS011;53303;47.476;8.084;2022-10-16T06:35:06;6.57;;;2.10;;
66485;SDS011;53303;47.476;8.084;2022-10-16T06:37:31;9.35;;;1.85;;
66485;SDS011;53303;47.476;8.084;2022-10-16T06:39:57;4.70;;;1.48;;
66485;SDS011;53303;47.476;8.084;2022-10-16T06:42:25;5.35;;;1.70;;
66485;SDS011;53303;47.476;8.084;2022-10-16T06:44:52;8.77;;;1.80;;
66485;SDS011;53303;47.476;8.084;2022-10-16T06:47:18;6.68;;;2.20;;
66485;SDS011;53303;47.476;8.084;2022-10-16T06:49:43;5.35;;;1.75;;
66485;SDS011;53303;47.476;8.084;2022-10-16T06:52:09;6.25;;;1.80;;
66485;SDS011;53303;47.476;8.084;2022-10-16T06:54:36;6.65;;;1.80;;
66485;SDS011;53303;47.476;8.084;2022-10-16T06:57:04;7.28;;;1.88;;
66485;SDS011;53303;47.476;8.084;2022-10-16T06:59:29;7.15;;;2.03;;
66485;SDS011;53303;47.476;8.084;2022-10-16T07:01:55;6.07;;;2.00;;
66485;SDS011;53303;47.476;8.084;2022-10-16T07:04:20;5.68;;;1.50;;
66485;SDS011;53303;47.476;8.084;2022-10-16T07:06:45;6.00;;;1.92;;
66485;SDS011;53303;47.476;8.084;2022-10-16T07:09:13;6.45;;;2.30;;
66485;SDS011;53303;47.476;8.084;2022-10-16T07:11:39;4.30;;;1.83;;
66485;SDS011;53303;47.476;8.084;2022-10-16T07:14:12;4.15;;;1.73;;
66485;SDS011;53303;47.476;8.084;2022-10-16T07:16:41;5.57;;;1.85;;
66485;SDS011;53303;47.476;8.084;2022-10-16T07:19:06;5.53;;;2.03;;
66485;SDS011;53303;47.476;8.084;2022-10-16T07:21:33;4.88;;;1.80;;
66485;SDS011;53303;47.476;8.084;2022-10-16T07:24:02;4.05;;;1.55;;
66485;SDS011;53303;47.476;8.084;2022-10-16T07:26:30;6.47;;;1.95;;
66485;SDS011;53303;47.476;8.084;2022-10-16T07:28:57;6.22;;;1.95;;
66485;SDS011;53303;47.476;8.084;2022-10-16T07:31:26;4.95;;;1.80;;
66485;SDS011;53303;47.476;8.084;2022-10-16T07:33:52;5.82;;;2.20;;
66485;SDS011;53303;47.476;8.084;2022-10-16T07:36:19;4.65;;;1.98;;
66485;SDS011;53303;47.476;8.084;2022-10-16T07:38:45;6.28;;;2.28;;
66485;SDS011;53303;47.476;8.084;2022-10-16T07:41:12;5.50;;;2.20;;
66485;SDS011;53303;47.476;8.084;2022-10-16T07:43:38;6.85;;;2.78;;
66485;SDS011;53303;47.476;8.084;2022-10-16T07:46:03;6.20;;;2.25;;
66485;SDS011;53303;47.476;8.084;2022-10-16T07:48:30;5.70;;;2.20;;
66485;SDS011;53303;47.476;8.084;2022-10-16T07:50:58;6.35;;;2.53;;
66485;SDS011;53303;47.476;8.084;2022-10-16T07:53:30;6.00;;;2.38;;
66485;SDS011;53303;47.476;8.084;2022-10-16T07:55:57;5.82;;;2.35;;
66485;SDS011;53303;47.476;8.084;2022-10-16T07:58:24;6.10;;;2.40;;
66485;SDS011;53303;47.476;8.084;2022-10-16T08:00:49;6.03;;;2.42;;
66485;SDS011;53303;47.476;8.084;2022-10-16T08:03:14;5.93;;;2.20;;
66485;SDS011;53303;47.476;8.084;2022-10-16T08:05:40;5.78;;;2.25;;
66485;SDS011;53303;47.476;8.084;2022-10-16T08:08:11;5.43;;;2.30;;
66485;SDS011;53303;47.476;8.084;2022-10-16T08:10:39;5.05;;;2.40;;
66485;SDS011;53303;47.476;8.084;2022-10-16T08:13:06;5.28;;;2.30;;
66485;SDS011;53303;47.476;8.084;2022-10-16T08:15:34;5.25;;;2.70;;
66485;SDS011;53303;47.476;8.084;2022-10-16T08:18:00;5.45;;;2.10;;
66485;SDS011;53303;47.476;8.084;2022-10-16T08:20:28;5.80;;;2.60;;
66485;SDS011;53303;47.476;8.084;2022-10-16T08:22:57;5.90;;;2.67;;
66485;SDS011;53303;47.476;8.084;2022-10-16T08:25:24;5.40;;;2.40;;
66485;SDS011;53303;47.476;8.084;2022-10-16T08:27:50;5.82;;;2.33;;
66485;SDS011;53303;47.476;8.084;2022-10-16T08:30:16;6.45;;;2.50;;
66485;SDS011;53303;47.476;8.084;2022-10-16T08:32:45;5.78;;;2.65;;
66485;SDS011;53303;47.476;8.084;2022-10-16T08:35:11;6.70;;;2.60;;
66485;SDS011;53303;47.476;8.084;2022-10-16T08:37:37;5.82;;;2.65;;
66485;SDS011;53303;47.476;8.084;2022-10-16T08:40:04;4.75;;;2.30;;
66485;SDS011;53303;47.476;8.084;2022-10-16T08:42:44;4.93;;;2.30;;
66485;SDS011;53303;47.476;8.084;2022-10-16T08:50:37;6.03;;;2.60;;
66485;SDS011;53303;47.476;8.084;2022-10-16T08:53:05;5.97;;;2.72;;
66485;SDS011;53303;47.476;8.084;2022-10-16T08:55:37;5.50;;;2.20;;
66485;SDS011;53303;47.476;8.084;2022-10-16T08:58:40;6.45;;;2.53;;
66485;SDS011;53303;47.476;8.084;2022-10-16T09:01:04;6.05;;;2.30;;
66485;SDS011;53303;47.476;8.084;2022-10-16T09:03:51;5.25;;;2.25;;
66485;SDS011;53303;47.476;8.084;2022-10-16T09:09:09;5.80;;;2.25;;
66485;SDS011;53303;47.476;8.084;2022-10-16T09:25:28;4.10;;;1.83;;
66485;SDS011;53303;47.476;8.084;2022-10-16T09:27:53;3.88;;;1.60;;
66485;SDS011;53303;47.476;8.084;2022-10-16T09:30:20;5.28;;;2.05;;
66485;SDS011;53303;47.476;8.084;2022-10-16T09:32:48;4.63;;;1.70;;
66485;SDS011;53303;47.476;8.084;2022-10-16T09:35:22;3.50;;;1.63;;
66485;SDS011;53303;47.476;8.084;2022-10-16T09:37:56;3.67;;;1.60;;
66485;SDS011;53303;47.476;8.084;2022-10-16T09:42:54;4.40;;;1.65;;
66485;SDS011;53303;47.476;8.084;2022-10-16T09:45:43;3.53;;;1.48;;
66485;SDS011;53303;47.476;8.084;2022-10-16T09:48:21;3.30;;;1.50;;
66485;SDS011;53303;47.476;8.084;2022-10-16T09:51:00;3.90;;;1.50;;
66485;SDS011;53303;47.476;8.084;2022-10-16T09:53:44;3.45;;;1.40;;
66485;SDS011;53303;47.476;8.084;2022-10-16T09:56:12;3.28;;;1.42;;
66485;SDS011;53303;47.476;8.084;2022-10-16T09:58:51;4.13;;;1.40;;
66485;SDS011;53303;47.476;8.084;2022-10-16T10:01:19;3.08;;;1.40;;
66485;SDS011;53303;47.476;8.084;2022-10-16T10:03:45;3.60;;;1.40;;
66485;SDS011;53303;47.476;8.084;2022-10-16T10:06:17;3.78;;;1.60;;
66485;SDS011;53303;47.476;8.084;2022-10-16T10:09:37;2.80;;;1.45;;
66485;SDS011;53303;47.476;8.084;2022-10-16T10:14:18;2.72;;;1.15;;
66485;SDS011;53303;47.476;8.084;2022-10-16T10:16:46;3.00;;;1.20;;
66485;SDS011;53303;47.476;8.084;2022-10-16T10:19:20;3.60;;;1.40;;
66485;SDS011;53303;47.476;8.084;2022-10-16T10:21:47;2.75;;;1.20;;
66485;SDS011;53303;47.476;8.084;2022-10-16T10:24:15;3.30;;;1.15;;
66485;SDS011;53303;47.476;8.084;2022-10-16T10:26:43;4.13;;;1.42;;
66485;SDS011;53303;47.476;8.084;2022-10-16T10:35:13;2.60;;;1.10;;
66485;SDS011;53303;47.476;8.084;2022-10-16T10:38:07;3.03;;;1.10;;
66485;SDS011;53303;47.476;8.084;2022-10-16T10:49:49;4.07;;;1.13;;
66485;SDS011;53303;47.476;8.084;2022-10-16T11:08:57;3.45;;;1.60;;
66485;SDS011;53303;47.476;8.084;2022-10-16T11:11:36;4.00;;;1.58;;
66485;SDS011;53303;47.476;8.084;2022-10-16T11:14:09;8.35;;;1.50;;
66485;SDS011;53303;47.476;8.084;2022-10-16T11:16:42;2.78;;;1.20;;
66485;SDS011;53303;47.476;8.084;2022-10-16T11:19:14;4.85;;;1.58;;
66485;SDS011;53303;47.476;8.084;2022-10-16T11:22:29;4.43;;;1.45;;
66485;SDS011;53303;47.476;8.084;2022-10-16T11:30:34;2.45;;;1.20;;
66485;SDS011;53303;47.476;8.084;2022-10-16T11:36:05;2.13;;;1.00;;
66485;SDS011;53303;47.476;8.084;2022-10-16T11:41:19;3.55;;;1.20;;
66485;SDS011;53303;47.476;8.084;2022-10-16T11:44:14;2.13;;;1.00;;
66485;SDS011;53303;47.476;8.084;2022-10-16T11:49:42;3.00;;;1.20;;
66485;SDS011;53303;47.476;8.084;2022-10-16T11:57:17;3.35;;;1.30;;
66485;SDS011;53303;47.476;8.084;2022-10-16T11:59:51;2.35;;;1.02;;
66485;SDS011;53303;47.476;8.084;2022-10-16T12:04:52;3.13;;;1.10;;
66485;SDS011;53303;47.476;8.084;2022-10-16T12:07:39;2.40;;;1.00;;
66485;SDS011;53303;47.476;8.084;2022-10-16T12:10:27;3.28;;;0.93;;
66485;SDS011;53303;47.476;8.084;2022-10-16T12:13:02;2.75;;;0.90;;
66485;SDS011;53303;47.476;8.084;2022-10-16T12:15:31;3.97;;;1.13;;
66485;SDS011;53303;47.476;8.084;2022-10-16T12:17:58;2.85;;;1.02;;
66485;SDS011;53303;47.476;8.084;2022-10-16T12:20:28;3.55;;;1.00;;
66485;SDS011;53303;47.476;8.084;2022-10-16T12:25:32;3.00;;;1.15;;
66485;SDS011;53303;47.476;8.084;2022-10-16T12:30:32;2.55;;;1.00;;
66485;SDS011;53303;47.476;8.084;2022-10-16T12:33:04;2.83;;;1.20;;
66485;SDS011;53303;47.476;8.084;2022-10-16T12:35:35;2.95;;;1.20;;
66485;SDS011;53303;47.476;8.084;2022-10-16T12:38:20;2.13;;;0.90;;
66485;SDS011;53303;47.476;8.084;2022-10-16T12:40:54;2.70;;;0.90;;
66485;SDS011;53303;47.476;8.084;2022-10-16T12:43:34;2.25;;;1.00;;
66485;SDS011;53303;47.476;8.084;2022-10-16T12:46:20;2.10;;;0.90;;
66485;SDS011;53303;47.476;8.084;2022-10-16T12:48:48;2.45;;;1.00;;
66485;SDS011;53303;47.476;8.084;2022-10-16T12:51:32;2.67;;;1.35;;
66485;SDS011;53303;47.476;8.084;2022-10-16T12:54:03;4.03;;;1.92;;
66485;SDS011;53303;47.476;8.084;2022-10-16T13:13:01;3.65;;;1.30;;
66485;SDS011;53303;47.476;8.084;2022-10-16T13:19:18;4.55;;;1.05;;
66485;SDS011;53303;47.476;8.084;2022-10-16T13:29:30;4.05;;;1.10;;
66485;SDS011;53303;47.476;8.084;2022-10-16T13:31:57;3.05;;;1.38;;
66485;SDS011;53303;47.476;8.084;2022-10-16T13:34:25;3.65;;;1.35;;
66485;SDS011;53303;47.476;8.084;2022-10-16T13:36:52;2.90;;;1.10;;
66485;SDS011;53303;47.476;8.084;2022-10-16T13:42:04;2.13;;;1.20;;
66485;SDS011;53303;47.476;8.084;2022-10-16T13:44:36;3.38;;;1.30;;
66485;SDS011;53303;47.476;8.084;2022-10-16T13:47:27;3.42;;;1.13;;
66485;SDS011;53303;47.476;8.084;2022-10-16T13:50:04;1.95;;;1.38;;
66485;SDS011;53303;47.476;8.084;2022-10-16T13:52:34;4.13;;;1.42;;
66485;SDS011;53303;47.476;8.084;2022-10-16T13:55:03;3.70;;;1.30;;
66485;SDS011;53303;47.476;8.084;2022-10-16T13:57:30;2.70;;;1.13;;
66485;SDS011;53303;47.476;8.084;2022-10-16T13:59:55;2.70;;;1.20;;
66485;SDS011;53303;47.476;8.084;2022-10-16T14:05:00;3.67;;;1.40;;
66485;SDS011;53303;47.476;8.084;2022-10-16T14:07:28;3.58;;;1.23;;
66485;SDS011;53303;47.476;8.084;2022-10-16T14:09:56;4.75;;;1.10;;
66485;SDS011;53303;47.476;8.084;2022-10-16T14:12:29;2.80;;;1.08;;
66485;SDS011;53303;47.476;8.084;2022-10-16T14:14:55;2.83;;;1.30;;
66485;SDS011;53303;47.476;8.084;2022-10-16T14:17:26;4.45;;;1.40;;
66485;SDS011;53303;47.476;8.084;2022-10-16T14:19:53;4.25;;;1.38;;
66485;SDS011;53303;47.476;8.084;2022-10-16T14:25:00;2.83;;;1.05;;
66485;SDS011;53303;47.476;8.084;2022-10-16T14:27:29;3.30;;;1.35;;
66485;SDS011;53303;47.476;8.084;2022-10-16T14:30:22;5.15;;;1.15;;
66485;SDS011;53303;47.476;8.084;2022-10-16T14:32:54;4.82;;;1.35;;
66485;SDS011;53303;47.476;8.084;2022-10-16T14:35:34;3.20;;;0.98;;
66485;SDS011;53303;47.476;8.084;2022-10-16T14:38:02;3.67;;;1.23;;
66485;SDS011;53303;47.476;8.084;2022-10-16T14:40:29;2.47;;;1.52;;
66485;SDS011;53303;47.476;8.084;2022-10-16T14:42:59;4.53;;;1.20;;
66485;SDS011;53303;47.476;8.084;2022-10-16T14:45:30;3.67;;;1.33;;
66485;SDS011;53303;47.476;8.084;2022-10-16T14:47:58;3.83;;;1.33;;
66485;SDS011;53303;47.476;8.084;2022-10-16T14:50:26;2.83;;;1.17;;
66485;SDS011;53303;47.476;8.084;2022-10-16T14:52:52;4.20;;;1.48;;
66485;SDS011;53303;47.476;8.084;2022-10-16T14:55:18;3.10;;;1.20;;
66485;SDS011;53303;47.476;8.084;2022-10-16T14:57:46;3.90;;;1.30;;
66485;SDS011;53303;47.476;8.084;2022-10-16T15:00:17;3.33;;;1.70;;
66485;SDS011;53303;47.476;8.084;2022-10-16T15:02:48;2.85;;;1.08;;
66485;SDS011;53303;47.476;8.084;2022-10-16T15:05:22;2.50;;;1.20;;
66485;SDS011;53303;47.476;8.084;2022-10-16T15:07:50;3.30;;;1.45;;
66485;SDS011;53303;47.476;8.084;2022-10-16T15:10:18;2.97;;;1.35;;
66485;SDS011;53303;47.476;8.084;2022-10-16T15:12:48;3.83;;;1.67;;
66485;SDS011;53303;47.476;8.084;2022-10-16T15:17:48;3.92;;;1.60;;
66485;SDS011;53303;47.476;8.084;2022-10-16T15:20:21;3.83;;;1.63;;
66485;SDS011;53303;47.476;8.084;2022-10-16T15:22:51;3.13;;;1.60;;
66485;SDS011;53303;47.476;8.084;2022-10-16T15:25:29;3.90;;;1.77;;
66485;SDS011;53303;47.476;8.084;2022-10-16T15:27:57;3.95;;;1.42;;
66485;SDS011;53303;47.476;8.084;2022-10-16T15:30:27;3.50;;;1.60;;
66485;SDS011;53303;47.476;8.084;2022-10-16T15:32:53;4.03;;;1.50;;
66485;SDS011;53303;47.476;8.084;2022-10-16T15:35:19;6.47;;;1.50;;
66485;SDS011;53303;47.476;8.084;2022-10-16T15:37:45;3.63;;;1.50;;
66485;SDS011;53303;47.476;8.084;2022-10-16T15:40:12;6.07;;;1.80;;
66485;SDS011;53303;47.476;8.084;2022-10-16T15:42:40;8.13;;;1.58;;
66485;SDS011;53303;47.476;8.084;2022-10-16T15:45:08;6.40;;;1.60;;
66485;SDS011;53303;47.476;8.084;2022-10-16T15:47:37;3.80;;;1.23;;
66485;SDS011;53303;47.476;8.084;2022-10-16T15:50:03;6.03;;;1.63;;
66485;SDS011;53303;47.476;8.084;2022-10-16T15:52:29;5.20;;;1.40;;
66485;SDS011;53303;47.476;8.084;2022-10-16T15:54:57;3.55;;;1.50;;
66485;SDS011;53303;47.476;8.084;2022-10-16T15:57:25;3.40;;;1.42;;
66485;SDS011;53303;47.476;8.084;2022-10-16T15:59:53;4.35;;;1.38;;
66485;SDS011;53303;47.476;8.084;2022-10-16T16:02:18;4.88;;;1.77;;
66485;SDS011;53303;47.476;8.084;2022-10-16T16:04:44;4.57;;;1.48;;
66485;SDS011;53303;47.476;8.084;2022-10-16T16:07:10;4.05;;;1.52;;
66485;SDS011;53303;47.476;8.084;2022-10-16T16:09:35;5.30;;;1.40;;
66485;SDS011;53303;47.476;8.084;2022-10-16T16:12:01;5.40;;;1.90;;
66485;SDS011;53303;47.476;8.084;2022-10-16T16:14:29;5.13;;;1.70;;
66485;SDS011;53303;47.476;8.084;2022-10-16T16:16:56;4.90;;;1.90;;
66485;SDS011;53303;47.476;8.084;2022-10-16T16:19:23;4.05;;;1.60;;
66485;SDS011;53303;47.476;8.084;2022-10-16T16:21:49;4.32;;;1.33;;
66485;SDS011;53303;47.476;8.084;2022-10-16T16:24:15;4.13;;;1.65;;
66485;SDS011;53303;47.476;8.084;2022-10-16T16:26:40;5.38;;;1.60;;
66485;SDS011;53303;47.476;8.084;2022-10-16T16:29:11;4.10;;;1.40;;
66485;SDS011;53303;47.476;8.084;2022-10-16T16:31:40;5.05;;;1.60;;
66485;SDS011;53303;47.476;8.084;2022-10-16T16:34:08;4.68;;;1.42;;
66485;SDS011;53303;47.476;8.084;2022-10-16T16:36:34;5.13;;;1.60;;
66485;SDS011;53303;47.476;8.084;2022-10-16T16:39:03;3.95;;;1.60;;
66485;SDS011;53303;47.476;8.084;2022-10-16T16:41:29;4.03;;;1.70;;
66485;SDS011;53303;47.476;8.084;2022-10-16T16:43:55;3.67;;;1.50;;
66485;SDS011;53303;47.476;8.084;2022-10-16T16:46:26;3.38;;;1.60;;
66485;SDS011;53303;47.476;8.084;2022-10-16T16:48:52;4.72;;;1.85;;
66485;SDS011;53303;47.476;8.084;2022-10-16T16:51:20;5.20;;;1.75;;
66485;SDS011;53303;47.476;8.084;2022-10-16T16:53:49;4.57;;;1.80;;
66485;SDS011;53303;47.476;8.084;2022-10-16T16:56:18;6.13;;;1.70;;
66485;SDS011;53303;47.476;8.084;2022-10-16T16:58:45;4.47;;;1.70;;
66485;SDS011;53303;47.476;8.084;2022-10-16T17:01:11;4.78;;;1.60;;
66485;SDS011;53303;47.476;8.084;2022-10-16T17:03:37;3.83;;;1.92;;
66485;SDS011;53303;47.476;8.084;2022-10-16T17:06:06;5.55;;;1.75;;
66485;SDS011;53303;47.476;8.084;2022-10-16T17:08:36;5.00;;;1.77;;
66485;SDS011;53303;47.476;8.084;2022-10-16T17:11:02;5.53;;;1.90;;
66485;SDS011;53303;47.476;8.084;2022-10-16T17:13:29;4.38;;;1.90;;
66485;SDS011;53303;47.476;8.084;2022-10-16T17:15:59;4.53;;;1.83;;
66485;SDS011;53303;47.476;8.084;2022-10-16T17:18:24;6.28;;;1.55;;
66485;SDS011;53303;47.476;8.084;2022-10-16T17:20:50;4.88;;;1.70;;